createdAt,value
2018-06-22T00:02:19.257Z,63.60
2018-06-22T00:04:48.280Z,63.85
2018-06-22T00:07:17.360Z,64.29
2018-06-22T00:09:46.475Z,64.60
2018-06-22T00:12:15.474Z,64.44
2018-06-22T00:14:44.490Z,63.76
2018-06-22T00:17:13.485Z,64.03
2018-06-22T00:19:42.641Z,63.69
2018-06-22T00:22:11.429Z,63.49
2018-06-22T00:24:40.993Z,63.30
2018-06-22T00:27:10.161Z,62.56
2018-06-22T00:29:39.114Z,61.89
2018-06-22T00:32:08.090Z,63.31
2018-06-22T00:34:36.719Z,63.11
2018-06-22T00:37:05.420Z,63.09
2018-06-22T00:39:34.059Z,63.41
2018-06-22T00:42:02.807Z,63.35
2018-06-22T00:44:31.526Z,63.60
2018-06-22T00:47:00.175Z,63.67
2018-06-22T00:49:28.843Z,63.83
2018-06-22T00:51:57.484Z,63.87
2018-06-22T00:54:26.160Z,64.15
2018-06-22T00:56:54.823Z,64.18
2018-06-22T00:59:23.496Z,64.36
2018-06-22T01:01:52.325Z,63.77
2018-06-22T01:04:21.041Z,63.54
2018-06-22T01:06:49.713Z,63.44
2018-06-22T01:09:18.417Z,64.55
2018-06-22T01:11:47.082Z,65.02
2018-06-22T01:14:17.082Z,65.55
2018-06-22T01:16:46.007Z,65.76
2018-06-22T01:19:15.570Z,65.89
2018-06-22T01:21:44.490Z,66.00
2018-06-22T01:24:13.447Z,66.72
2018-06-22T01:26:42.106Z,66.83
2018-06-22T01:29:10.798Z,65.82
2018-06-22T01:31:39.511Z,66.98
2018-06-22T01:34:08.131Z,67.06
2018-06-22T01:36:36.796Z,67.75
2018-06-22T01:39:05.497Z,67.70
2018-06-22T01:41:34.196Z,67.59
2018-06-22T01:44:02.830Z,67.57
2018-06-22T01:46:31.483Z,67.28
2018-06-22T01:49:00.161Z,67.31
2018-06-22T01:51:28.809Z,67.36
2018-06-22T01:53:57.477Z,67.63
2018-06-22T01:56:26.098Z,67.23
2018-06-22T01:58:55.150Z,67.75
2018-06-22T02:01:24.398Z,67.50
2018-06-22T02:03:53.621Z,67.34
2018-06-22T02:06:22.522Z,66.36
2018-06-22T02:08:54.293Z,67.15
2018-06-22T02:11:23.111Z,67.96
2018-06-22T02:13:52.307Z,67.99
2018-06-22T02:16:21.602Z,68.34
2018-06-22T02:18:50.889Z,67.98
2018-06-22T02:21:19.815Z,67.89
2018-06-22T02:23:48.764Z,68.07
2018-06-22T02:26:17.879Z,67.93
2018-06-22T02:28:46.721Z,67.87
2018-06-22T02:31:15.691Z,67.54
2018-06-22T02:33:44.807Z,67.82
2018-06-22T02:36:13.663Z,67.80
2018-06-22T02:38:42.910Z,67.89
2018-06-22T02:41:12.585Z,67.43
2018-06-22T02:43:41.780Z,67.49
2018-06-22T02:46:10.675Z,67.45
2018-06-22T02:48:42.401Z,67.28
2018-06-22T02:51:11.449Z,66.97
2018-06-22T02:53:40.284Z,67.18
2018-06-22T02:56:09.394Z,67.28
2018-06-22T02:58:38.568Z,67.08
2018-06-22T03:01:07.770Z,66.82
2018-06-22T03:03:36.711Z,66.69
2018-06-22T03:06:05.671Z,66.46
2018-06-22T03:08:34.688Z,64.45
2018-06-22T03:11:04.150Z,63.40
2018-06-22T03:13:33.153Z,64.81
2018-06-22T03:16:02.158Z,65.03
2018-06-22T03:18:31.460Z,62.78
2018-06-22T03:21:00.592Z,64.28
2018-06-22T03:23:29.453Z,64.57
2018-06-22T03:25:58.818Z,64.68
2018-06-22T03:28:27.909Z,64.71
2018-06-22T03:30:56.962Z,64.85
2018-06-22T03:33:26.199Z,64.99
2018-06-22T03:35:57.321Z,64.96
2018-06-22T03:38:26.425Z,64.89
2018-06-22T03:40:55.986Z,64.93
2018-06-22T03:43:25.076Z,64.95
2018-06-22T03:45:54.781Z,64.81
2018-06-22T03:48:23.748Z,64.79
2018-06-22T03:50:53.224Z,64.60
2018-06-22T03:53:22.250Z,62.64
2018-06-22T03:55:51.193Z,63.83
2018-06-22T03:58:20.583Z,64.32
2018-06-22T04:00:49.504Z,62.24
2018-06-22T04:03:18.984Z,63.61
2018-06-22T04:05:47.969Z,61.62
2018-06-22T04:08:17.446Z,60.81
2018-06-22T04:10:46.353Z,62.80
2018-06-22T04:13:15.452Z,63.38
2018-06-22T04:15:45.342Z,63.73
2018-06-22T04:18:14.222Z,63.68
2018-06-22T04:20:43.496Z,63.76
2018-06-22T04:23:12.426Z,63.66
2018-06-22T04:25:41.653Z,63.84
2018-06-22T04:28:10.576Z,63.56
2018-06-22T04:30:39.093Z,63.55
2018-06-22T04:33:07.754Z,63.62
2018-06-22T04:35:36.486Z,63.55
2018-06-22T04:38:05.569Z,63.34
2018-06-22T04:40:36.628Z,63.23
2018-06-22T04:43:10.362Z,63.52
2018-06-22T04:45:39.447Z,63.28
2018-06-22T04:48:08.091Z,63.38
2018-06-22T04:50:36.776Z,63.45
2018-06-22T04:53:10.078Z,63.62
2018-06-22T04:55:38.810Z,63.54
2018-06-22T04:58:07.477Z,63.28
2018-06-22T05:00:36.185Z,63.36
2018-06-22T05:03:04.879Z,62.97
2018-06-22T05:05:33.586Z,63.11
2018-06-22T05:08:02.217Z,62.77
2018-06-22T05:10:30.951Z,62.70
2018-06-22T05:13:00.630Z,62.65
2018-06-22T05:15:29.268Z,60.15
2018-06-22T05:17:57.928Z,61.66
2018-06-22T05:20:26.561Z,61.89
2018-06-22T05:22:55.259Z,61.90
2018-06-22T05:25:23.983Z,59.16
2018-06-22T05:27:52.719Z,58.35
2018-06-22T05:30:21.585Z,60.01
2018-06-22T05:32:51.228Z,60.70
2018-06-22T05:35:23.404Z,60.88
2018-06-22T05:37:52.081Z,61.03
2018-06-22T05:40:23.899Z,60.97
2018-06-22T05:42:59.462Z,60.57
2018-06-22T05:45:30.272Z,60.46
2018-06-22T05:48:02.689Z,56.85
2018-06-22T05:50:32.902Z,58.77
2018-06-22T05:53:06.640Z,55.64
2018-06-22T05:55:36.413Z,57.81
2018-06-22T05:58:10.140Z,58.57
2018-06-22T06:00:41.218Z,58.84
2018-06-22T06:03:21.890Z,59.00
2018-06-22T06:06:00.983Z,58.73
2018-06-22T06:08:34.165Z,58.77
2018-06-22T06:11:04.839Z,58.76
2018-06-22T06:13:36.598Z,58.85
2018-06-22T06:16:08.322Z,58.90
2018-06-22T06:18:39.291Z,58.59
2018-06-22T06:21:08.323Z,58.53
2018-06-22T06:23:40.000Z,58.81
2018-06-22T06:26:09.473Z,59.08
2018-06-22T06:28:42.104Z,55.95
2018-06-22T06:31:16.537Z,57.86
2018-06-22T06:33:57.487Z,54.59
2018-06-22T06:36:28.687Z,53.30
2018-06-22T06:38:58.356Z,55.81
2018-06-22T06:41:27.465Z,56.42
2018-06-22T06:43:59.815Z,56.77
2018-06-22T06:46:28.762Z,53.80
2018-06-22T06:49:03.725Z,56.44
2018-06-22T06:51:35.621Z,57.10
2018-06-22T06:54:04.863Z,57.37
2018-06-22T06:56:34.453Z,58.36
2018-06-22T06:59:03.462Z,59.75
2018-06-22T07:01:32.784Z,60.85
2018-06-22T07:04:02.187Z,62.09
2018-06-22T07:06:32.626Z,60.08
2018-06-22T07:09:01.521Z,62.20
2018-06-22T07:11:30.607Z,62.84
2018-06-22T07:14:00.869Z,62.59
2018-06-22T07:16:30.090Z,63.26
2018-06-22T07:19:02.031Z,63.48
2018-06-22T07:21:34.445Z,63.53
2018-06-22T07:24:05.133Z,63.36
2018-06-22T07:26:31.914Z,63.19
2018-06-22T07:29:03.618Z,63.78
2018-06-22T07:31:32.704Z,62.81
2018-06-22T07:34:01.583Z,63.02
2018-06-22T07:36:30.480Z,63.33
2018-06-22T07:39:00.516Z,62.69
2018-06-22T07:41:34.602Z,63.31
2018-06-22T07:44:03.388Z,63.79
2018-06-22T07:46:32.670Z,63.93
2018-06-22T07:49:08.422Z,64.05
2018-06-22T07:51:38.713Z,60.91
2018-06-22T07:54:09.864Z,62.61
2018-06-22T07:56:42.279Z,63.31
2018-06-22T07:59:11.763Z,59.76
2018-06-22T08:01:40.870Z,59.88
2018-06-22T08:04:10.620Z,62.06
2018-06-22T08:06:39.922Z,62.80
2018-06-22T08:09:09.229Z,62.54
2018-06-22T08:11:39.466Z,63.08
2018-06-22T08:14:09.464Z,63.19
2018-06-22T08:16:38.488Z,63.03
2018-06-22T08:19:10.315Z,63.58
2018-06-22T08:21:39.355Z,59.21
2018-06-22T08:24:08.456Z,61.92
2018-06-22T08:26:38.561Z,58.76
2018-06-22T08:29:07.880Z,61.52
2018-06-22T08:31:36.883Z,61.48
2018-06-22T08:34:07.321Z,62.31
2018-06-22T08:36:37.267Z,62.42
2018-06-22T08:39:06.269Z,62.21
2018-06-22T08:41:35.255Z,55.89
2018-06-22T08:44:04.361Z,58.53
2018-06-22T08:46:33.272Z,59.61
2018-06-22T08:49:03.121Z,60.30
2018-06-22T08:51:32.989Z,56.42
2018-06-22T08:54:09.912Z,60.14
2018-06-22T08:56:38.613Z,57.77
2018-06-22T08:59:07.303Z,60.13
2018-06-22T09:02:49.356Z,61.39
2018-06-22T09:05:19.590Z,62.69
2018-06-22T09:07:48.270Z,62.79
2018-06-22T09:10:16.958Z,63.19
2018-06-22T09:12:45.691Z,62.27
2018-06-22T09:15:14.451Z,62.30
2018-06-22T09:17:43.396Z,61.75
2018-06-22T09:20:12.061Z,61.05
2018-06-22T09:22:40.762Z,55.37
2018-06-22T09:25:12.112Z,57.76
2018-06-22T09:27:40.845Z,58.47
2018-06-22T09:30:09.519Z,58.88
2018-06-22T09:32:38.232Z,57.89
2018-06-22T09:35:06.934Z,50.90
2018-06-22T09:37:35.823Z,49.29
2018-06-22T09:40:04.540Z,52.88
2018-06-22T09:42:33.270Z,54.33
2018-06-22T09:45:02.250Z,54.32
2018-06-22T09:47:30.836Z,54.01
2018-06-22T09:49:59.833Z,53.53
2018-06-22T09:52:32.614Z,53.52
2018-06-22T09:55:01.416Z,55.29
2018-06-22T09:57:30.537Z,57.26
2018-06-22T09:59:59.768Z,57.85
2018-06-22T10:02:31.178Z,58.51
2018-06-22T10:04:59.844Z,58.15
2018-06-22T10:07:28.849Z,52.75
2018-06-22T10:09:57.660Z,50.41
2018-06-22T10:12:33.047Z,48.63
2018-06-22T10:15:01.792Z,51.56
2018-06-22T10:17:30.471Z,52.19
2018-06-22T10:20:02.700Z,51.95
2018-06-22T10:22:31.792Z,52.07
2018-06-22T10:25:00.486Z,51.92
2018-06-22T10:27:29.158Z,51.87
2018-06-22T10:29:58.502Z,51.25
2018-06-22T10:32:27.554Z,45.24
2018-06-22T10:34:56.928Z,42.04
2018-06-22T10:37:25.924Z,45.55
2018-06-22T10:39:54.694Z,46.67
2018-06-22T10:42:23.908Z,42.55
2018-06-22T10:44:53.223Z,42.09
2018-06-22T10:47:21.949Z,44.79
2018-06-22T10:49:50.675Z,45.92
2018-06-22T10:52:19.335Z,42.59
2018-06-22T10:54:48.010Z,45.78
2018-06-22T10:57:16.663Z,46.39
2018-06-22T10:59:45.455Z,47.04
2018-06-22T11:02:14.104Z,46.83
2018-06-22T11:04:42.868Z,47.17
2018-06-22T11:07:11.502Z,47.08
2018-06-22T11:09:40.599Z,46.82
2018-06-22T11:12:10.915Z,45.51
2018-06-22T11:14:40.239Z,45.78
2018-06-22T11:17:09.009Z,46.83
2018-06-22T11:19:37.617Z,47.48
2018-06-22T11:22:06.406Z,47.83
2018-06-22T11:24:35.197Z,48.52
2018-06-22T11:27:03.796Z,48.74
2018-06-22T11:29:33.037Z,49.26
2018-06-22T11:32:01.679Z,49.23
2018-06-22T11:34:31.152Z,49.26
2018-06-22T11:36:59.869Z,48.36
2018-06-22T11:39:28.562Z,46.68
2018-06-22T11:42:00.336Z,40.37
2018-06-22T11:44:29.058Z,43.51
2018-06-22T11:46:57.798Z,44.21
2018-06-22T11:49:28.277Z,39.40
2018-06-22T11:51:57.432Z,38.38
2018-06-22T11:54:26.141Z,41.94
2018-06-22T11:57:07.074Z,42.93
2018-06-22T11:59:37.540Z,39.89
2018-06-22T12:02:06.187Z,42.88
2018-06-22T12:04:41.074Z,42.68
2018-06-22T12:07:31.664Z,42.13
2018-06-22T12:10:03.352Z,42.20
2018-06-22T12:12:32.610Z,41.55
2018-06-22T12:15:02.908Z,37.51
2018-06-22T12:17:34.976Z,40.55
2018-06-22T12:20:06.019Z,41.05
2018-06-22T12:22:36.333Z,41.60
2018-06-22T12:25:07.030Z,41.94
2018-06-22T12:27:37.233Z,42.32
2018-06-22T12:30:06.369Z,42.81
2018-06-22T12:32:36.694Z,42.53
2018-06-22T12:35:07.317Z,41.17
2018-06-22T12:37:41.202Z,41.13
2018-06-22T12:40:10.633Z,41.11
2018-06-22T12:42:40.656Z,40.96
2018-06-22T12:45:14.212Z,41.96
2018-06-22T12:47:43.735Z,42.62
2018-06-22T12:50:14.045Z,43.69
2018-06-22T12:52:43.099Z,46.30
2018-06-22T12:55:14.696Z,46.63
2018-06-22T12:57:45.884Z,47.39
2018-06-22T13:00:15.202Z,46.52
2018-06-22T13:02:46.817Z,47.97
2018-06-22T13:05:16.866Z,47.05
2018-06-22T13:07:50.793Z,42.47
2018-06-22T13:10:22.080Z,44.36
2018-06-22T13:12:52.373Z,44.19
2018-06-22T13:15:25.452Z,44.15
2018-06-22T13:17:54.349Z,43.73
2018-06-22T13:20:27.513Z,39.30
2018-06-22T13:22:56.536Z,40.65
2018-06-22T13:25:33.284Z,40.48
2018-06-22T13:28:05.270Z,40.48
2018-06-22T13:30:37.040Z,40.47
2018-06-22T13:33:05.924Z,40.74
2018-06-22T13:35:36.262Z,40.67
2018-06-22T13:38:05.216Z,41.27
2018-06-22T13:40:35.660Z,42.12
2018-06-22T13:43:08.655Z,39.13
2018-06-22T13:45:38.174Z,37.48
2018-06-22T13:48:08.356Z,38.92
2018-06-22T13:50:47.439Z,38.71
2018-06-22T13:53:17.625Z,38.87
2018-06-22T13:55:47.801Z,39.05
2018-06-22T13:58:16.848Z,39.45
2018-06-22T14:00:47.335Z,38.96
2018-06-22T14:03:15.992Z,38.08
2018-06-22T14:05:47.354Z,33.83
2018-06-22T14:08:16.035Z,36.15
2018-06-22T14:10:44.745Z,36.62
2018-06-22T14:13:13.386Z,36.90
2018-06-22T14:15:42.552Z,37.00
2018-06-22T14:18:17.723Z,37.07
2018-06-22T14:20:47.004Z,37.56
2018-06-22T14:23:15.748Z,37.81
2018-06-22T14:25:44.438Z,37.88
2018-06-22T14:28:13.441Z,38.30
2018-06-22T14:30:42.314Z,38.64
2018-06-22T14:33:11.007Z,38.65
2018-06-22T14:35:39.725Z,38.36
2018-06-22T14:38:08.477Z,38.90
2018-06-22T14:40:37.159Z,35.91
2018-06-22T14:43:05.955Z,38.00
2018-06-22T14:45:34.585Z,38.65
2018-06-22T14:48:03.589Z,35.18
2018-06-22T14:50:32.342Z,37.51
2018-06-22T14:53:00.955Z,37.75
2018-06-22T14:55:33.179Z,36.88
2018-06-22T14:58:07.887Z,36.32
2018-06-22T15:00:54.379Z,32.62
2018-06-22T15:03:26.212Z,34.09
2018-06-22T15:05:58.003Z,34.14
2018-06-22T15:08:26.665Z,33.82
2018-06-22T15:10:55.391Z,33.11
2018-06-22T15:13:24.700Z,33.63
2018-06-22T15:15:54.631Z,33.70
2018-06-22T15:18:24.145Z,33.71
2018-06-22T15:20:53.435Z,33.38
2018-06-22T15:23:22.362Z,33.55
2018-06-22T15:25:52.022Z,29.25
2018-06-22T15:28:20.898Z,31.53
2018-06-22T15:30:49.624Z,32.23
2018-06-22T15:33:18.312Z,32.24
2018-06-22T15:35:56.216Z,32.93
2018-06-22T15:38:42.953Z,32.53
2018-06-22T15:41:29.859Z,28.01
2018-06-22T15:44:16.749Z,31.27
2018-06-22T15:46:58.502Z,32.48
2018-06-22T15:49:30.282Z,33.42
2018-06-22T15:52:17.209Z,34.15
2018-06-22T15:54:49.796Z,34.25
2018-06-22T15:57:18.509Z,30.25
2018-06-22T15:59:47.266Z,29.75
2018-06-22T16:02:15.962Z,31.67
2018-06-22T16:04:44.632Z,28.80
2018-06-22T16:07:13.829Z,31.83
2018-06-22T16:09:42.544Z,33.27
2018-06-22T16:12:11.365Z,34.38
2018-06-22T16:14:40.056Z,35.31
2018-06-22T16:17:27.693Z,36.53
2018-06-22T16:20:02.033Z,34.94
2018-06-22T16:22:48.703Z,35.31
2018-06-22T16:25:29.461Z,36.08
2018-06-22T16:28:01.091Z,39.30
2018-06-22T16:30:29.881Z,41.54
2018-06-22T16:32:58.966Z,43.70
2018-06-22T16:35:30.813Z,45.88
2018-06-22T16:37:59.594Z,46.65
2018-06-22T16:40:28.251Z,50.48
2018-06-22T16:42:56.926Z,52.88
2018-06-22T16:45:25.975Z,54.92
2018-06-22T16:47:54.648Z,56.97
2018-06-22T16:50:23.305Z,59.94
2018-06-22T16:52:55.389Z,61.39
2018-06-22T16:55:25.643Z,61.79
2018-06-22T16:57:54.375Z,61.45
2018-06-22T17:00:23.042Z,62.30
2018-06-22T17:02:51.812Z,62.69
2018-06-22T17:05:20.458Z,63.32
2018-06-22T17:07:58.189Z,63.40
2018-06-22T17:10:30.010Z,64.54
2018-06-22T17:13:07.420Z,65.59
2018-06-22T17:15:36.087Z,65.59
2018-06-22T17:18:07.788Z,66.33
2018-06-22T17:20:36.420Z,66.88
2018-06-22T17:23:05.128Z,67.74
2018-06-22T17:25:36.681Z,69.30
2018-06-22T17:28:05.435Z,68.17
2018-06-22T17:30:34.200Z,69.64
2018-06-22T17:33:02.892Z,68.04
2018-06-22T17:35:31.568Z,64.75
2018-06-22T17:38:00.229Z,64.27
2018-06-22T17:40:29.000Z,63.69
2018-06-22T17:42:57.721Z,64.98
2018-06-22T17:45:26.329Z,65.90
2018-06-22T17:47:55.021Z,66.39
2018-06-22T17:50:23.677Z,63.49
2018-06-22T17:52:52.396Z,62.12
2018-06-22T17:55:21.077Z,61.89
2018-06-22T17:57:49.776Z,60.97
2018-06-22T18:00:18.436Z,59.88
2018-06-22T18:02:53.139Z,58.71
2018-06-22T18:05:22.403Z,58.78
2018-06-22T18:07:51.102Z,59.46
2018-06-22T18:10:19.761Z,59.86
2018-06-22T18:12:48.502Z,60.89
2018-06-22T18:15:17.120Z,61.15
2018-06-22T18:17:45.903Z,61.15
2018-06-22T18:20:14.607Z,62.41
2018-06-22T18:22:43.400Z,63.29
2018-06-22T18:25:11.987Z,63.73
2018-06-22T18:27:40.676Z,63.00
2018-06-22T18:30:09.346Z,63.11
2018-06-22T18:32:38.060Z,61.50
2018-06-22T18:35:06.716Z,63.92
2018-06-22T18:37:37.989Z,64.31
2018-06-22T18:40:04.153Z,64.23
2018-06-22T18:42:32.859Z,64.98
2018-06-22T18:45:01.622Z,63.98
2018-06-22T18:47:30.406Z,63.58
2018-06-22T18:49:59.101Z,64.96
2018-06-22T18:52:27.798Z,65.04
2018-06-22T18:55:14.430Z,65.51
2018-06-22T18:57:45.987Z,65.37
2018-06-22T19:00:22.415Z,63.47
2018-06-22T19:02:51.233Z,64.83
2018-06-22T19:05:20.052Z,65.21
2018-06-22T19:07:50.769Z,65.52
2018-06-22T19:10:20.512Z,63.77
2018-06-22T19:12:49.221Z,64.61
2018-06-22T19:15:17.883Z,64.81
2018-06-22T19:17:46.655Z,62.05
2018-06-22T19:20:15.317Z,63.37
2018-06-22T19:22:44.005Z,63.74
2018-06-22T19:25:12.785Z,63.62
2018-06-22T19:27:42.204Z,63.56
2018-06-22T19:30:10.876Z,63.52
2018-06-22T19:32:39.669Z,63.72
2018-06-22T19:35:08.349Z,63.31
2018-06-22T19:37:37.037Z,63.12
2018-06-22T19:40:05.690Z,62.83
2018-06-22T19:42:34.402Z,62.98
2018-06-22T19:45:03.041Z,61.09
2018-06-22T19:47:49.942Z,60.34
2018-06-22T19:50:18.519Z,62.07
2018-06-22T19:52:59.181Z,62.42
2018-06-22T19:55:27.849Z,62.76
2018-06-22T19:57:56.535Z,62.91
2018-06-22T20:00:25.213Z,62.69
2018-06-22T20:02:53.898Z,62.42
2018-06-22T20:05:22.581Z,62.16
2018-06-22T20:07:51.276Z,62.17
2018-06-22T20:10:19.923Z,62.15
2018-06-22T20:12:48.918Z,62.63
2018-06-22T20:15:17.620Z,62.72
2018-06-22T20:17:46.364Z,62.92
2018-06-22T20:20:15.026Z,63.05
2018-06-22T20:22:44.168Z,63.05
2018-06-22T20:25:13.260Z,63.09
2018-06-22T20:27:41.955Z,63.00
2018-06-22T20:30:10.679Z,63.08
2018-06-22T20:32:39.330Z,63.06
2018-06-22T20:35:08.041Z,63.02
2018-06-22T20:37:42.701Z,63.07
2018-06-22T20:40:23.466Z,63.25
2018-06-22T20:42:52.825Z,61.70
2018-06-22T20:45:37.050Z,62.80
2018-06-22T20:48:23.832Z,63.25
2018-06-22T20:50:52.556Z,61.72
2018-06-22T20:53:31.925Z,62.93
2018-06-22T20:56:00.646Z,63.33
2018-06-22T20:58:30.744Z,63.15
2018-06-22T21:00:59.490Z,63.28
2018-06-22T21:03:28.111Z,63.27
2018-06-22T21:05:56.776Z,63.17
2018-06-22T21:08:25.522Z,61.96
2018-06-22T21:10:54.172Z,62.85
2018-06-22T21:13:23.989Z,63.10
2018-06-22T21:15:52.600Z,63.19
2018-06-22T21:18:21.406Z,63.36
2018-06-22T21:20:50.096Z,63.47
2018-06-22T21:23:18.794Z,61.90
2018-06-22T21:25:47.518Z,63.02
2018-06-22T21:28:25.444Z,62.97
2018-06-22T21:31:12.363Z,62.51
2018-06-22T21:33:41.071Z,62.01
2018-06-22T21:36:09.850Z,61.85
2018-06-22T21:38:41.127Z,61.57
2018-06-22T21:41:09.899Z,61.38
2018-06-22T21:43:38.597Z,59.29
2018-06-22T21:46:07.242Z,60.43
2018-06-22T21:48:35.922Z,60.60
2018-06-22T21:51:04.613Z,60.75
2018-06-22T21:53:33.316Z,58.76
2018-06-22T21:56:02.040Z,58.10
2018-06-22T21:58:30.783Z,58.21
2018-06-22T22:00:59.481Z,59.61
2018-06-22T22:03:28.226Z,59.82
2018-06-22T22:05:56.891Z,59.91
2018-06-22T22:08:25.571Z,60.03
2018-06-22T22:10:54.242Z,60.26
2018-06-22T22:13:22.951Z,58.78
2018-06-22T22:15:51.603Z,60.30
2018-06-22T22:18:20.241Z,61.31
2018-06-22T22:20:48.955Z,61.82
2018-06-22T22:23:17.792Z,62.02
2018-06-22T22:25:49.313Z,60.63
2018-06-22T22:28:17.981Z,62.07
2018-06-22T22:30:46.685Z,60.58
2018-06-22T22:33:15.342Z,61.62
2018-06-22T22:35:45.004Z,59.24
2018-06-22T22:38:14.239Z,60.74
2018-06-22T22:40:42.948Z,61.17
2018-06-22T22:43:11.733Z,61.30
2018-06-22T22:45:40.545Z,61.39
2018-06-22T22:48:09.185Z,61.51
2018-06-22T22:50:37.906Z,61.43
2018-06-22T22:53:07.673Z,59.50
2018-06-22T22:55:36.412Z,58.97
2018-06-22T22:58:05.179Z,58.67
2018-06-22T23:00:33.964Z,58.53
2018-06-22T23:03:02.636Z,60.55
2018-06-22T23:05:31.590Z,61.40
2018-06-22T23:08:03.069Z,61.69
2018-06-22T23:10:31.616Z,61.95
2018-06-22T23:13:00.330Z,62.11
2018-06-22T23:15:29.447Z,62.05
2018-06-22T23:17:58.681Z,59.95
2018-06-22T23:20:29.518Z,61.39
2018-06-22T23:23:30.108Z,61.44
2018-06-22T23:26:00.603Z,61.37
2018-06-22T23:28:29.541Z,61.14
2018-06-22T23:30:58.992Z,61.04
2018-06-22T23:33:29.874Z,61.17
2018-06-22T23:35:59.127Z,61.24
2018-06-22T23:38:28.723Z,61.18
2018-06-22T23:40:57.624Z,61.33
2018-06-22T23:43:26.521Z,61.28
2018-06-22T23:45:55.931Z,61.44
2018-06-22T23:48:25.356Z,61.49
2018-06-22T23:50:54.885Z,61.48
2018-06-22T23:53:23.979Z,61.64
2018-06-22T23:55:52.793Z,61.70
2018-06-22T23:58:22.122Z,61.77
